KLWS/LWS METAR and TAF weather

Enter ICAO airport designator
Station Type Date Time Source
KLWS METAR 2020/07/14 05:56 UTC NOAA

KLWS 140556Z AUTO 19005KT 10SM CLR 18/02 A3002 RMK AO2 SLP158 T01830017 10267 20178 53008


Station Type Date Time Source
KLWS Decoded METAR 2020/07/14 05:56 UTC NOAA

LEWISTON NEZ PERCE CO AIRPORT , ID, United States (KLWS) 46-22N 117-01W 438M
Jul 14, 2020 - 01:56 AM EDT / 2020.07.14 0556 UTC
Wind: from the S (190 degrees) at 6 MPH (5 KT):0
Visibility: 10 mile(s):0
Sky conditions: clear
Temperature: 64.9 F (18.3 C)
Dew Point: 35.1 F (1.7 C)
Relative Humidity: 32%
Pressure (altimeter): 30.02 in. Hg (1016 hPa)
Pressure tendency: 0.02 inches (0.8 hPa) higher than three hours ago
ob: KLWS 140556Z AUTO 19005KT 10SM CLR 18/02 A3002 RMK AO2 SLP158 T01830017 10267 20178 53008
cycle: 6

Station Type Date Time Source
KLWS TAF 2020/07/14 06:22 UTC NOAA

TAF KLWS 140520Z 1406/1506 15003KT P6SM SKC
FM141500 VRB05KT P6SM SKC

Example: see airport list